Time;durP1;ratioP1;P1;durP2;ratioP2;P2;SDS_P1;SDS_P2;PMS_P1;PMS_P2;Temp;Humidity;BMP_temperature;BMP_pressure;BME280_temperature;BME280_humidity;BME280_pressure;Samples;Min_cycle;Max_cycle;Signal;HPM_P1;HPM_P2
2024/03/25 00:00:24;;;;;;;1999.90;999.90;;;;;;;6.73;100.00;99564.10;105783;1257;68602;-80
2024/03/25 00:02:52;;;;;;;76.00;71.20;;;;;;;6.61;100.00;99560.21;106099;1257;72992;-76
2024/03/25 00:05:22;;;;;;;1501.80;751.60;;;;;;;6.60;100.00;99557.34;105960;1263;60504;-79
2024/03/25 00:07:50;;;;;;;230.70;158.30;;;;;;;6.68;100.00;99551.77;105776;1258;60523;-79
2024/03/25 00:10:20;;;;;;;16.30;8.40;;;;;;;6.69;100.00;99547.06;105771;1260;73924;-80
2024/03/25 00:12:52;;;;;;;242.70;127.10;;;;;;;6.60;100.00;99535.89;105849;1257;67559;-80
2024/03/25 00:15:20;;;;;;;20.70;9.30;;;;;;;6.64;100.00;99530.95;105606;1257;70826;-75
2024/03/25 00:17:48;;;;;;;17.60;9.50;;;;;;;6.64;100.00;99533.70;105765;1257;61778;-75
2024/03/25 00:20:15;;;;;;;18.90;9.40;;;;;;;6.64;100.00;99533.48;105887;1264;60565;-76
2024/03/25 00:22:43;;;;;;;19.50;8.60;;;;;;;6.54;100.00;99537.10;106570;1258;72606;-80
2024/03/25 00:25:11;;;;;;;20.60;10.00;;;;;;;6.51;100.00;99536.89;105791;1257;68455;-77
2024/03/25 00:27:39;;;;;;;18.30;8.40;;;;;;;6.60;100.00;99541.65;105834;1257;71838;-80
2024/03/25 00:30:07;;;;;;;16.00;8.70;;;;;;;6.65;100.00;99548.26;105724;1260;61716;-80
2024/03/25 00:32:35;;;;;;;24.80;11.40;;;;;;;6.68;100.00;99541.09;105748;1260;60613;-80
2024/03/25 00:35:03;;;;;;;60.50;15.00;;;;;;;6.66;100.00;99536.64;105953;1260;74549;-80
2024/03/25 00:37:31;;;;;;;23.30;10.90;;;;;;;6.65;100.00;99531.90;105890;1262;67140;-79
2024/03/25 00:39:59;;;;;;;23.20;11.60;;;;;;;6.62;100.00;99533.01;105644;1257;72692;-79
2024/03/25 00:42:26;;;;;;;21.50;9.70;;;;;;;6.59;100.00;99522.38;105632;1257;61786;-80
2024/03/25 00:44:54;;;;;;;22.60;11.10;;;;;;;6.57;100.00;99522.83;106477;1260;60371;-80
2024/03/25 00:47:21;;;;;;;22.00;9.70;;;;;;;6.55;100.00;99526.58;106069;1260;74538;-80
2024/03/25 00:49:49;;;;;;;23.60;11.00;;;;;;;6.56;100.00;99525.86;105757;1257;68348;-80
2024/03/25 00:52:17;;;;;;;22.90;10.10;;;;;;;6.43;100.00;99545.80;105870;1257;72709;-75
2024/03/25 00:54:44;;;;;;;227.90;36.10;;;;;;;6.43;100.00;99545.86;105925;1257;60395;-75
2024/03/25 00:57:12;;;;;;;79.40;31.90;;;;;;;6.48;100.00;99527.55;105618;1261;60431;-75
2024/03/25 00:59:40;;;;;;;1999.90;999.90;;;;;;;6.53;100.00;99506.86;105622;1260;73905;-80
2024/03/25 01:02:08;;;;;;;1999.90;999.90;;;;;;;6.53;100.00;99509.14;105642;1263;68417;-80
2024/03/25 01:04:35;;;;;;;1999.90;999.90;;;;;;;6.53;100.00;99511.05;105704;1261;70539;-80
2024/03/25 01:07:03;;;;;;;16.70;8.70;;;;;;;6.46;100.00;99515.73;106590;1257;60457;-80
2024/03/25 01:09:31;;;;;;;24.90;10.70;;;;;;;6.48;100.00;99522.23;105625;1258;60366;-80
2024/03/25 01:11:59;;;;;;;21.00;9.70;;;;;;;6.50;100.00;99516.86;105750;1257;73877;-75
2024/03/25 01:14:27;;;;;;;19.90;9.10;;;;;;;6.43;100.00;99507.27;105813;1257;68535;-76
2024/03/25 01:16:54;;;;;;;16.30;9.70;;;;;;;6.38;100.00;99500.93;105860;1256;71811;-79
2024/03/25 01:19:22;;;;;;;19.70;8.80;;;;;;;6.35;100.00;99498.65;105728;1257;60569;-80
2024/03/25 01:21:50;;;;;;;19.40;9.90;;;;;;;6.40;100.00;99502.55;106014;1257;60533;-80
2024/03/25 01:24:17;;;;;;;16.40;8.70;;;;;;;6.42;100.00;99510.54;105690;1257;72660;-75
2024/03/25 01:26:45;;;;;;;19.50;8.70;;;;;;;6.44;100.00;99508.57;105974;1260;67137;-80
2024/03/25 01:29:12;;;;;;;20.70;9.70;;;;;;;6.43;100.00;99509.40;105561;1262;71146;-76
2024/03/25 01:31:40;;;;;;;17.60;8.70;;;;;;;6.46;100.00;99511.02;105930;1260;62010;-81
2024/03/25 01:34:08;;;;;;;17.60;7.80;;;;;;;6.48;100.00;99517.14;105570;1263;60612;-80
2024/03/25 01:36:35;;;;;;;18.90;8.60;;;;;;;6.48;100.00;99514.20;105784;1259;73838;-80
2024/03/25 01:39:05;;;;;;;21.80;10.70;;;;;;;6.47;100.00;99512.27;105793;1258;71056;-80
2024/03/25 01:41:32;;;;;;;17.50;8.50;;;;;;;6.49;100.00;99507.74;105827;1257;72658;-76
2024/03/25 01:44:00;;;;;;;20.50;9.10;;;;;;;6.48;100.00;99500.75;106010;1257;62307;-80
2024/03/25 01:46:27;;;;;;;16.30;8.20;;;;;;;6.47;100.00;99499.22;106109;1258;60382;-80
2024/03/25 01:48:58;;;;;;;21.40;10.00;;;;;;;6.46;100.00;99488.10;105616;1257;73873;-81
2024/03/25 01:51:25;;;;;;;27.60;14.70;;;;;;;6.35;100.00;99482.54;105791;1260;69079;-80
2024/03/25 01:53:53;;;;;;;19.70;9.50;;;;;;;6.27;100.00;99478.38;105616;1257;70796;-80
2024/03/25 01:56:22;;;;;;;20.10;9.80;;;;;;;6.37;100.00;99488.08;105456;1257;60790;-76
2024/03/25 01:58:50;;;;;;;23.00;11.30;;;;;;;6.40;100.00;99501.25;105606;1257;60658;-80
2024/03/25 02:01:18;;;;;;;19.10;8.70;;;;;;;6.44;100.00;99501.09;106192;1257;72375;-76
2024/03/25 02:03:46;;;;;;;15.50;8.00;;;;;;;6.49;100.00;99505.91;105766;1263;69058;-80
2024/03/25 02:06:15;;;;;;;19.80;10.50;;;;;;;6.53;100.00;99502.41;105563;1257;71357;-80
2024/03/25 02:08:43;;;;;;;20.20;10.00;;;;;;;6.52;100.00;99497.59;105708;1257;62163;-80
2024/03/25 02:11:12;;;;;;;17.50;9.90;;;;;;;6.54;100.00;99495.58;105466;1263;60561;-76
2024/03/25 02:13:39;;;;;;;19.60;10.00;;;;;;;6.51;100.00;99488.73;105707;1257;72597;-76
2024/03/25 02:16:07;;;;;;;18.30;9.30;;;;;;;6.49;100.00;99486.30;105996;1258;67129;-76
2024/03/25 02:18:35;;;;;;;16.30;8.00;;;;;;;6.51;100.00;99477.19;105847;1257;72732;-80
2024/03/25 02:21:02;;;;;;;15.60;8.90;;;;;;;6.50;100.00;99475.33;105557;1260;60472;-80
2024/03/25 02:23:30;;;;;;;20.10;11.00;;;;;;;6.39;100.00;99472.71;105695;1258;60552;-81
2024/03/25 02:25:58;;;;;;;19.60;10.60;;;;;;;6.45;100.00;99479.75;105607;1257;71321;-76
2024/03/25 02:28:25;;;;;;;18.40;10.30;;;;;;;6.51;100.00;99478.49;105833;1258;68002;-80
2024/03/25 02:30:53;;;;;;;15.30;9.00;;;;;;;6.51;100.00;99481.20;105660;1257;72692;-80
2024/03/25 02:33:21;;;;;;;20.50;11.40;;;;;;;6.50;100.00;99481.85;106382;1256;60319;-81
2024/03/25 02:35:48;;;;;;;18.80;10.10;;;;;;;6.50;100.00;99483.42;105886;1260;60830;-81
2024/03/25 02:38:18;;;;;;;25.50;11.90;;;;;;;6.50;100.00;99480.39;105789;1257;73864;-80
2024/03/25 02:40:46;;;;;;;23.10;11.40;;;;;;;6.49;100.00;99475.89;105636;1257;68434;-80
2024/03/25 02:43:13;;;;;;;20.70;10.60;;;;;;;6.44;100.00;99470.95;105522;1257;72514;-76
2024/03/25 02:45:41;;;;;;;24.40;11.40;;;;;;;6.43;100.00;99473.84;105611;1258;60473;-80
2024/03/25 02:48:09;;;;;;;17.60;9.90;;;;;;;6.43;100.00;99472.80;105549;1260;60436;-79
2024/03/25 02:50:36;;;;;;;17.10;9.40;;;;;;;6.34;100.00;99473.64;106279;1258;73902;-77
2024/03/25 02:53:04;;;;;;;23.00;11.50;;;;;;;6.22;100.00;99475.63;105765;1260;67165;-76
2024/03/25 02:55:31;;;;;;;17.30;9.80;;;;;;;6.22;100.00;99477.20;105772;1260;71477;-80
2024/03/25 02:57:59;;;;;;;16.00;8.90;;;;;;;6.21;100.00;99480.13;105710;1257;61388;-80
2024/03/25 03:00:27;;;;;;;20.20;9.90;;;;;;;6.19;100.00;99484.27;105714;1257;61145;-80
2024/03/25 03:02:54;;;;;;;16.90;8.90;;;;;;;6.21;100.00;99488.80;105794;1257;74605;-80
2024/03/25 03:05:22;;;;;;;16.50;8.30;;;;;;;6.22;100.00;99485.66;106061;1257;66514;-76
2024/03/25 03:07:49;;;;;;;17.30;10.00;;;;;;;6.29;100.00;99486.07;105885;1258;71410;-80
2024/03/25 03:10:17;;;;;;;21.00;10.50;;;;;;;6.34;100.00;99481.09;105722;1257;61365;-76
2024/03/25 03:12:45;;;;;;;13.40;8.00;;;;;;;6.35;100.00;99482.27;105854;1262;60126;-76
2024/03/25 03:15:13;;;;;;;15.40;9.30;;;;;;;6.36;100.00;99481.77;105641;1260;74694;-76
2024/03/25 03:17:40;;;;;;;15.20;8.90;;;;;;;6.35;100.00;99476.95;105672;1257;68388;-76
2024/03/25 03:20:09;;;;;;;16.40;9.20;;;;;;;6.36;100.00;99482.15;106277;1257;73332;-76
2024/03/25 03:22:36;;;;;;;14.90;8.70;;;;;;;6.32;100.00;99480.32;105723;1257;61695;-80
2024/03/25 03:25:04;;;;;;;13.10;7.60;;;;;;;6.27;100.00;99478.65;105756;1257;61458;-76
2024/03/25 03:27:32;;;;;;;15.50;8.50;;;;;;;6.26;100.00;99482.08;105856;1257;73428;-79
2024/03/25 03:29:59;;;;;;;15.90;9.80;;;;;;;6.25;100.00;99486.84;105716;1257;67541;-76
2024/03/25 03:32:27;;;;;;;17.50;10.60;;;;;;;6.25;100.00;99492.77;105687;1256;71387;-80
2024/03/25 03:34:55;;;;;;;22.40;13.60;;;;;;;6.25;100.00;99495.48;105452;1260;61824;-76
2024/03/25 03:37:22;;;;;;;25.00;14.40;;;;;;;6.24;100.00;99503.23;105806;1260;61224;-79
2024/03/25 03:39:50;;;;;;;27.80;15.10;;;;;;;6.26;100.00;99510.62;106976;1255;75153;-76
2024/03/25 03:42:18;;;;;;;25.40;14.30;;;;;;;6.30;100.00;99511.90;105581;1260;68426;-76
2024/03/25 03:44:45;;;;;;;25.20;15.50;;;;;;;6.29;100.00;99505.84;105769;1258;71837;-79
2024/03/25 03:47:13;;;;;;;22.90;13.20;;;;;;;6.33;100.00;99507.73;105768;1257;61769;-76
2024/03/25 03:49:41;;;;;;;18.50;11.80;;;;;;;6.35;100.00;99510.27;105749;1260;61469;-76
2024/03/25 03:52:08;;;;;;;24.00;12.10;;;;;;;6.36;100.00;99518.63;105564;1257;74604;-79
2024/03/25 03:54:36;;;;;;;25.10;13.20;;;;;;;6.41;100.00;99525.79;105478;1257;68414;-79
2024/03/25 03:57:04;;;;;;;20.20;11.20;;;;;;;6.43;100.00;99531.69;106108;1257;70752;-79
2024/03/25 03:59:31;;;;;;;17.20;10.50;;;;;;;6.45;100.00;99536.36;105565;1257;61307;-76
2024/03/25 04:01:59;;;;;;;17.40;10.20;;;;;;;6.50;100.00;99536.45;105740;1257;61448;-76
2024/03/25 04:04:27;;;;;;;18.60;9.50;;;;;;;6.52;100.00;99534.05;105914;1257;74221;-79
2024/03/25 04:06:54;;;;;;;17.70;10.40;;;;;;;6.53;100.00;99530.44;105779;1261;68385;-76
2024/03/25 04:09:23;;;;;;;24.10;12.00;;;;;;;6.41;100.00;99532.67;106193;1256;72711;-76
2024/03/25 04:11:51;;;;;;;37.60;16.50;;;;;;;6.46;100.00;99527.09;105732;1260;61872;-78
2024/03/25 04:14:18;;;;;;;24.90;13.20;;;;;;;6.39;100.00;99529.15;105919;1257;61438;-75
2024/03/25 04:16:47;;;;;;;27.30;13.60;;;;;;;6.30;100.00;99533.34;105672;1258;74779;-79
2024/03/25 04:19:14;;;;;;;21.60;12.10;;;;;;;6.36;100.00;99527.52;105671;1257;67128;-75
2024/03/25 04:21:42;;;;;;;17.20;9.50;;;;;;;6.37;100.00;99524.43;105847;1257;71384;-79
2024/03/25 04:24:09;;;;;;;23.40;10.90;;;;;;;6.38;100.00;99525.58;105898;1260;61227;-79
2024/03/25 04:26:37;;;;;;;11.30;7.10;;;;;;;6.39;100.00;99529.75;106431;1255;61502;-79
2024/03/25 04:29:05;;;;;;;14.80;8.00;;;;;;;6.39;100.00;99540.66;105614;1260;74662;-79
2024/03/25 04:31:32;;;;;;;15.00;8.80;;;;;;;6.35;100.00;99544.47;105900;1260;67292;-75
2024/03/25 04:34:00;;;;;;;18.30;9.50;;;;;;;6.36;100.00;99541.91;105844;1256;71988;-79
2024/03/25 04:36:28;;;;;;;14.40;8.70;;;;;;;6.27;100.00;99538.23;105763;1257;61727;-75
2024/03/25 04:38:57;;;;;;;20.70;11.70;;;;;;;6.27;100.00;99524.98;105692;1257;61283;-79
2024/03/25 04:41:25;;;;;;;18.00;10.60;;;;;;;6.24;100.00;99520.65;105824;1257;73546;-75
2024/03/25 04:43:52;;;;;;;13.90;9.10;;;;;;;6.21;100.00;99522.56;105746;1260;67090;-76
2024/03/25 04:46:20;;;;;;;14.30;9.30;;;;;;;6.19;100.00;99536.78;105478;1260;71262;-79
2024/03/25 04:48:48;;;;;;;16.20;9.20;;;;;;;6.18;100.00;99547.84;105453;1257;61210;-79
2024/03/25 04:51:15;;;;;;;21.80;11.40;;;;;;;6.16;100.00;99549.27;105593;1260;61147;-75
2024/03/25 04:53:43;;;;;;;18.30;10.50;;;;;;;6.15;100.00;99554.20;105685;1257;73258;-76
2024/03/25 04:56:10;;;;;;;17.50;8.60;;;;;;;6.14;100.00;99554.52;105943;1257;67560;-80
2024/03/25 04:58:38;;;;;;;17.80;9.50;;;;;;;6.20;100.00;99554.14;105558;1260;71712;-79
2024/03/25 05:01:06;;;;;;;21.40;10.70;;;;;;;6.24;100.00;99554.24;105805;1257;61853;-75
2024/03/25 05:03:33;;;;;;;19.60;10.30;;;;;;;6.27;100.00;99553.80;105837;1257;61442;-76
2024/03/25 05:06:01;;;;;;;14.00;7.40;;;;;;;6.28;100.00;99550.40;105680;1257;74683;-76
2024/03/25 05:08:29;;;;;;;20.40;10.80;;;;;;;6.29;100.00;99542.14;105795;1261;68513;-76
2024/03/25 05:10:56;;;;;;;18.00;9.50;;;;;;;6.26;100.00;99538.73;105697;1257;72726;-79
2024/03/25 05:13:24;;;;;;;19.00;11.10;;;;;;;6.13;100.00;99533.47;105593;1258;61415;-80
2024/03/25 05:15:52;;;;;;;13.60;8.10;;;;;;;6.10;100.00;99537.58;106176;1260;61273;-75
2024/03/25 05:18:19;;;;;;;14.10;7.70;;;;;;;6.10;100.00;99541.94;105658;1260;74653;-79
2024/03/25 05:20:47;;;;;;;14.40;8.10;;;;;;;6.13;100.00;99541.71;106027;1254;68493;-76
2024/03/25 05:23:14;;;;;;;17.80;8.40;;;;;;;6.12;100.00;99546.20;105957;1254;70721;-79
2024/03/25 05:25:42;;;;;;;11.70;6.60;;;;;;;6.13;100.00;99547.96;105898;1258;61911;-75
2024/03/25 05:28:10;;;;;;;19.10;9.50;;;;;;;6.07;100.00;99548.33;105875;1254;61246;-76
2024/03/25 05:30:37;;;;;;;14.00;7.70;;;;;;;6.03;100.00;99544.98;105992;1254;74614;-78
2024/03/25 05:33:05;;;;;;;10.90;6.10;;;;;;;6.05;100.00;99543.55;105951;1254;66672;-75
2024/03/25 05:35:36;;;;;;;13.80;7.00;;;;;;;6.06;100.00;99538.30;105813;1259;73175;-76
2024/03/25 05:38:03;;;;;;;12.90;7.70;;;;;;;6.08;100.00;99530.54;105737;1254;61973;-76
2024/03/25 05:40:31;;;;;;;19.20;9.50;;;;;;;6.11;100.00;99531.52;107015;1259;61375;-76
2024/03/25 05:42:59;;;;;;;17.10;9.10;;;;;;;6.16;100.00;99533.03;105836;1257;74658;-79
2024/03/25 05:45:27;;;;;;;15.10;8.70;;;;;;;6.19;100.00;99535.90;106184;1254;69030;-79
2024/03/25 05:47:55;;;;;;;14.80;7.60;;;;;;;6.18;100.00;99539.98;105573;1260;73447;-75
2024/03/25 05:50:22;;;;;;;17.20;9.50;;;;;;;6.19;100.00;99539.23;105841;1254;61749;-79
2024/03/25 05:52:50;;;;;;;18.00;9.30;;;;;;;6.14;100.00;99537.65;105870;1254;61455;-79
2024/03/25 05:55:18;;;;;;;18.40;10.10;;;;;;;6.11;100.00;99536.51;105789;1253;74617;-79
2024/03/25 05:57:45;;;;;;;16.00;8.50;;;;;;;6.11;100.00;99530.55;105736;1254;66929;-79
2024/03/25 06:00:13;;;;;;;21.70;12.30;;;;;;;6.16;100.00;99529.73;105891;1259;72689;-78
2024/03/25 06:02:41;;;;;;;25.00;13.30;;;;;;;6.26;100.00;99528.36;106656;1254;61733;-79
2024/03/25 06:05:08;;;;;;;20.60;10.90;;;;;;;6.38;100.00;99523.51;105777;1254;61298;-80
2024/03/25 06:07:36;;;;;;;21.50;12.40;;;;;;;6.50;100.00;99522.25;105969;1254;73429;-79
2024/03/25 06:10:04;;;;;;;16.90;10.50;;;;;;;6.57;100.00;99518.80;106009;1254;68760;-80
2024/03/25 06:12:31;;;;;;;15.90;9.20;;;;;;;6.67;100.00;99517.80;105956;1254;71657;-80
2024/03/25 06:14:59;;;;;;;17.50;9.50;;;;;;;6.75;100.00;99514.46;105882;1257;61654;-79
2024/03/25 06:17:27;;;;;;;16.70;9.20;;;;;;;6.71;100.00;99512.30;106028;1254;61099;-80
2024/03/25 06:19:54;;;;;;;16.30;9.60;;;;;;;6.78;100.00;99515.91;106442;1254;74732;-79
2024/03/25 06:22:22;;;;;;;15.90;8.40;;;;;;;6.83;100.00;99521.66;106216;1256;68381;-79
2024/03/25 06:24:50;;;;;;;12.70;7.90;;;;;;;6.86;100.00;99518.98;105991;1258;73494;-80
2024/03/25 06:27:19;;;;;;;16.00;9.40;;;;;;;6.87;100.00;99517.14;106004;1259;61824;-80
2024/03/25 06:29:47;;;;;;;14.60;7.80;;;;;;;6.84;100.00;99516.00;105894;1257;61981;-75
2024/03/25 06:35:02;;;;;;;12.00;7.30;;;;;;;6.65;100.00;99518.77;106231;1254;69105;-79
2024/03/25 06:37:30;;;;;;;13.80;8.30;;;;;;;6.64;100.00;99523.45;105933;1257;71409;-80
2024/03/25 06:39:58;;;;;;;12.60;6.10;;;;;;;6.73;100.00;99523.42;105979;1254;61278;-80
2024/03/25 06:42:26;;;;;;;11.00;6.60;;;;;;;6.70;100.00;99524.19;106009;1259;61333;-80
2024/03/25 06:44:54;;;;;;;15.10;8.50;;;;;;;6.71;100.00;99525.39;105738;1259;73445;-80
2024/03/25 06:47:23;;;;;;;22.00;9.10;;;;;;;6.69;100.00;99526.75;105853;1253;68514;-80
2024/03/25 06:53:09;;;;;;;12.60;7.10;;;;;;;6.67;100.00;99529.04;102990;1289;600004;-76
2024/03/25 06:55:37;;;;;;;7.90;4.50;;;;;;;6.70;100.00;99533.81;105075;1267;60379;-82
2024/03/25 06:58:04;;;;;;;18.30;9.30;;;;;;;6.70;100.00;99533.15;104951;1266;60460;-82
2024/03/25 07:00:32;;;;;;;16.90;8.50;;;;;;;6.68;100.00;99531.53;105035;1272;76477;-82
2024/03/25 07:03:01;;;;;;;16.00;7.80;;;;;;;6.68;100.00;99535.55;105604;1264;69780;-82
2024/03/25 07:05:29;;;;;;;17.80;8.80;;;;;;;6.69;100.00;99532.88;105316;1269;73786;-81
2024/03/25 07:07:56;;;;;;;18.90;9.10;;;;;;;6.67;100.00;99538.55;105330;1263;242676;-76
2024/03/25 07:10:24;;;;;;;14.60;7.80;;;;;;;6.64;100.00;99539.89;105401;1261;59563;-81
2024/03/25 07:12:51;;;;;;;12.50;7.10;;;;;;;6.66;100.00;99541.69;105406;1269;72988;-80
2024/03/25 07:15:19;;;;;;;12.90;7.10;;;;;;;6.67;100.00;99532.34;105345;1266;69697;-81
2024/03/25 07:17:47;;;;;;;13.20;6.80;;;;;;;6.65;100.00;99540.12;105327;1266;72715;-81
2024/03/25 07:20:15;;;;;;;11.60;6.70;;;;;;;6.58;100.00;99537.75;105835;1263;62664;-80
2024/03/25 07:22:43;;;;;;;12.70;6.80;;;;;;;6.59;100.00;99537.31;105601;1263;60443;-81
2024/03/25 07:25:11;;;;;;;12.00;7.30;;;;;;;6.61;100.00;99541.05;105485;1260;72598;-81
2024/03/25 07:27:38;;;;;;;11.10;6.40;;;;;;;6.66;100.00;99538.66;105478;1260;71034;-80
2024/03/25 07:30:07;;;;;;;15.60;8.30;;;;;;;6.66;100.00;99537.94;105383;1263;74730;-80
2024/03/25 07:32:34;;;;;;;11.90;6.70;;;;;;;6.68;100.00;99535.02;105264;1263;64055;-80
2024/03/25 07:35:04;;;;;;;11.20;7.10;;;;;;;6.75;100.00;99536.02;105813;1266;61221;-79
2024/03/25 07:37:32;;;;;;;6.70;4.50;;;;;;;6.77;100.00;99536.61;105488;1260;75010;-80
2024/03/25 07:40:00;;;;;;;12.70;6.80;;;;;;;6.75;100.00;99533.58;105400;1260;69974;-80
2024/03/25 07:42:27;;;;;;;13.80;7.30;;;;;;;6.71;100.00;99535.88;105454;1260;74502;-81
2024/03/25 07:44:55;;;;;;;9.50;5.60;;;;;;;6.67;100.00;99527.58;105358;1265;62751;-80
2024/03/25 07:47:23;;;;;;;12.60;7.50;;;;;;;6.64;100.00;99528.17;105970;1260;62112;-80
2024/03/25 07:49:51;;;;;;;13.60;6.60;;;;;;;6.61;100.00;99528.45;105380;1260;74926;-80
2024/03/25 07:52:18;;;;;;;10.50;5.80;;;;;;;6.62;100.00;99532.02;105515;1260;71320;-79
2024/03/25 07:54:47;;;;;;;17.30;8.30;;;;;;;6.60;100.00;99532.64;105605;1260;74205;-80
2024/03/25 07:57:14;;;;;;;12.60;5.40;;;;;;;6.62;100.00;99532.75;105315;1260;65040;-80
2024/03/25 07:59:42;;;;;;;12.50;6.30;;;;;;;6.64;100.00;99529.48;105421;1260;62491;-79
2024/03/25 08:02:10;;;;;;;14.90;8.50;;;;;;;6.59;100.00;99529.66;105433;1260;75875;-79
2024/03/25 08:04:38;;;;;;;10.80;4.90;;;;;;;6.50;100.00;99532.92;105801;1260;69530;-79
2024/03/25 08:07:06;;;;;;;10.10;5.80;;;;;;;6.51;100.00;99529.78;105365;1267;74742;-80
2024/03/25 08:09:33;;;;;;;8.80;5.10;;;;;;;6.50;100.00;99533.86;105456;1266;62817;-79
2024/03/25 08:12:01;;;;;;;9.50;5.40;;;;;;;6.47;100.00;99530.16;105531;1264;62759;-79
2024/03/25 08:14:29;;;;;;;13.50;6.20;;;;;;;6.46;100.00;99524.48;105176;1260;73712;-80
2024/03/25 08:16:56;;;;;;;4.80;3.00;;;;;;;6.49;100.00;99520.83;105227;1260;70118;-79
2024/03/25 08:19:25;;;;;;;5.60;3.80;;;;;;;6.46;100.00;99522.47;105940;1266;74534;-81
2024/03/25 08:21:52;;;;;;;7.20;4.00;;;;;;;6.42;100.00;99520.41;105441;1267;62760;-80
2024/03/25 08:24:20;;;;;;;11.00;6.60;;;;;;;6.37;100.00;99518.04;105476;1269;62619;-81
2024/03/25 08:26:48;;;;;;;6.00;4.00;;;;;;;6.32;100.00;99516.04;105378;1267;76031;-81
2024/03/25 08:29:16;;;;;;;4.50;2.60;;;;;;;6.39;100.00;99519.11;105356;1260;70816;-81
2024/03/25 08:31:43;;;;;;;8.10;4.40;;;;;;;6.40;100.00;99512.86;105891;1263;74699;-81
2024/03/25 08:34:11;;;;;;;5.80;4.20;;;;;;;6.41;100.00;99509.50;105334;1263;62747;-81
2024/03/25 08:36:39;;;;;;;4.20;2.20;;;;;;;6.42;100.00;99511.72;105425;1267;61399;-81
2024/03/25 08:39:07;;;;;;;5.70;3.60;;;;;;;6.44;100.00;99507.55;105525;1260;76081;-81
2024/03/25 08:41:36;;;;;;;2.90;2.10;;;;;;;6.42;100.00;99509.45;105321;1263;70701;-82
2024/03/25 08:44:04;;;;;;;4.10;2.80;;;;;;;6.42;100.00;99509.18;105861;1260;75168;-81
2024/03/25 08:46:32;;;;;;;7.00;4.70;;;;;;;6.38;100.00;99508.31;105338;1261;63785;-81
2024/03/25 08:49:00;;;;;;;6.50;4.00;;;;;;;6.38;100.00;99510.53;105551;1261;62299;-81
2024/03/25 08:51:27;;;;;;;5.60;3.00;;;;;;;6.43;100.00;99508.73;105541;1260;74798;-81
2024/03/25 08:53:55;;;;;;;6.40;3.20;;;;;;;6.45;100.00;99507.53;105411;1260;69276;-80
2024/03/25 08:56:23;;;;;;;4.80;2.80;;;;;;;6.44;100.00;99504.40;105507;1260;73955;-80
2024/03/25 08:58:54;;;;;;;5.30;2.90;;;;;;;6.41;100.00;99500.44;105746;1265;60545;-80
2024/03/25 09:01:24;;;;;;;6.00;2.40;;;;;;;6.41;100.00;99497.67;105421;1263;62231;-81
2024/03/25 09:03:52;;;;;;;5.80;3.20;;;;;;;6.38;100.00;99494.80;105111;1261;74545;-81
2024/03/25 09:06:23;;;;;;;6.60;3.80;;;;;;;6.42;100.00;99492.67;105348;1260;71669;-81
2024/03/25 09:11:37;;;;;;;6.80;3.80;;;;;;;6.49;100.00;99494.02;106004;1260;62556;-82
2024/03/25 09:14:06;;;;;;;7.20;4.50;;;;;;;6.51;100.00;99496.13;105340;1260;62184;-82
2024/03/25 09:16:34;;;;;;;5.50;3.30;;;;;;;6.51;100.00;99493.41;105567;1260;74989;-82
2024/03/25 09:19:02;;;;;;;5.20;3.30;;;;;;;6.48;100.00;99491.25;105413;1265;69617;-82
2024/03/25 09:21:31;;;;;;;6.60;3.60;;;;;;;6.44;100.00;99491.36;105394;1261;74689;-81
2024/03/25 09:23:59;;;;;;;6.20;3.90;;;;;;;6.36;100.00;99488.83;105424;1263;60654;-81
2024/03/25 09:26:27;;;;;;;6.60;3.80;;;;;;;6.33;100.00;99491.89;105415;1265;62382;-81
2024/03/25 09:28:54;;;;;;;5.70;3.10;;;;;;;6.32;100.00;99496.92;105878;1260;75152;-81
2024/03/25 09:31:22;;;;;;;6.90;3.90;;;;;;;6.33;100.00;99493.02;105343;1263;71173;-81
2024/03/25 09:33:53;;;;;;;4.40;2.60;;;;;;;6.34;100.00;99497.46;105417;1263;75176;-81
2024/03/25 09:36:21;;;;;;;8.50;4.50;;;;;;;6.32;100.00;99494.87;105322;1260;63729;-81
2024/03/25 09:38:50;;;;;;;10.40;5.10;;;;;;;6.31;100.00;99491.67;105207;1267;62161;-80
2024/03/25 09:41:18;;;;;;;4.40;2.80;;;;;;;6.33;100.00;99490.58;105749;1266;76194;-81
2024/03/25 09:43:53;;;;;;;18.60;9.20;;;;;;;6.28;100.00;99487.48;105536;1266;70657;-80
2024/03/25 09:46:22;;;;;;;20.40;9.30;;;;;;;6.31;100.00;99483.48;105412;1260;73737;-80
2024/03/25 09:48:53;;;;;;;15.00;7.90;;;;;;;6.31;100.00;99485.53;105305;1260;62451;-81
2024/03/25 09:51:21;;;;;;;23.20;10.90;;;;;;;6.32;100.00;99479.61;105324;1262;60525;-81
2024/03/25 09:53:49;;;;;;;19.30;9.80;;;;;;;6.32;100.00;99477.13;105250;1263;74682;-81
2024/03/25 09:56:17;;;;;;;15.70;7.50;;;;;;;6.33;100.00;99475.27;105576;1263;70024;-81
2024/03/25 09:58:44;;;;;;;16.40;8.60;;;;;;;6.37;100.00;99475.54;105476;1262;73717;-81
2024/03/25 10:01:12;;;;;;;12.50;6.50;;;;;;;6.38;100.00;99472.38;105418;1263;61320;-81
2024/03/25 10:03:40;;;;;;;8.80;5.10;;;;;;;6.40;100.00;99471.89;105433;1263;61465;-80
2024/03/25 10:06:09;;;;;;;14.40;7.20;;;;;;;6.37;100.00;99469.80;105285;1263;75291;-81
2024/03/25 10:08:37;;;;;;;11.60;5.80;;;;;;;6.44;100.00;99468.09;105837;1264;71186;-81
2024/03/25 10:11:05;;;;;;;6.10;3.60;;;;;;;6.45;100.00;99466.63;105455;1263;74287;-81
2024/03/25 10:13:33;;;;;;;9.90;6.10;;;;;;;6.46;100.00;99462.70;105537;1263;61264;-81
2024/03/25 10:16:00;;;;;;;14.10;6.60;;;;;;;6.48;100.00;99464.22;105410;1262;61679;-81
2024/03/25 10:18:28;;;;;;;11.50;6.00;;;;;;;6.45;100.00;99462.44;105233;1269;76876;-81
2024/03/25 10:20:56;;;;;;;4.80;3.40;;;;;;;6.45;100.00;99458.80;105310;1263;70872;-81
2024/03/25 10:23:27;;;;;;;5.70;3.30;;;;;;;6.43;100.00;99451.10;105728;1263;73769;-82
2024/03/25 10:25:55;;;;;;;19.00;8.20;;;;;;;6.43;100.00;99454.69;105359;1263;62759;-81
2024/03/25 10:28:22;;;;;;;7.60;3.70;;;;;;;6.41;100.00;99452.29;105380;1265;60866;-81
2024/03/25 10:30:50;;;;;;;8.40;4.40;;;;;;;6.41;100.00;99451.10;105366;1265;74762;-81
2024/03/25 10:33:18;;;;;;;10.10;4.10;;;;;;;6.38;100.00;99452.20;105320;1263;70382;-81
2024/03/25 10:35:45;;;;;;;11.20;5.30;;;;;;;6.36;100.00;99448.08;105879;1263;73939;-81
2024/03/25 10:38:18;;;;;;;17.90;7.50;;;;;;;6.35;100.00;99441.25;105482;1264;64320;-81
2024/03/25 10:40:46;;;;;;;9.80;5.30;;;;;;;6.33;100.00;99439.67;105404;1263;61199;-81
2024/03/25 10:43:14;;;;;;;9.00;5.70;;;;;;;6.32;100.00;99434.03;105414;1263;74928;-81
2024/03/25 10:45:46;;;;;;;8.90;4.60;;;;;;;6.33;100.00;99432.30;105447;1264;71428;-81
2024/03/25 10:48:25;;;;;;;8.20;3.80;;;;;;;6.40;100.00;99426.80;106741;1262;75020;-81
2024/03/25 10:50:53;;;;;;;6.10;3.10;;;;;;;6.43;100.00;99427.33;105605;1262;62107;-81
2024/03/25 10:53:21;;;;;;;5.60;2.90;;;;;;;6.41;100.00;99421.96;105791;1258;62144;-81
2024/03/25 10:55:50;;;;;;;6.70;3.40;;;;;;;6.39;100.00;99417.94;105747;1256;76166;-81
2024/03/25 10:58:19;;;;;;;4.60;3.00;;;;;;;6.36;100.00;99422.58;105801;1258;68198;-81
2024/03/25 11:00:48;;;;;;;4.10;2.50;;;;;;;6.34;100.00;99418.29;105583;1257;74244;-81
2024/03/25 11:03:16;;;;;;;7.50;3.10;;;;;;;6.32;100.00;99419.55;106382;1257;62912;-81
2024/03/25 11:05:44;;;;;;;7.60;4.80;;;;;;;6.31;100.00;99417.44;105913;1257;61824;-81
2024/03/25 11:08:15;;;;;;;8.80;4.90;;;;;;;6.30;100.00;99417.17;105537;1264;76811;-81
2024/03/25 11:10:43;;;;;;;7.60;4.80;;;;;;;6.28;100.00;99414.67;105428;1258;71077;-81
2024/03/25 11:13:12;;;;;;;8.80;4.40;;;;;;;6.27;100.00;99415.17;105456;1258;74881;-81
2024/03/25 11:15:44;;;;;;;7.60;4.80;;;;;;;6.23;100.00;99411.16;105609;1262;64036;-82
2024/03/25 11:18:16;;;;;;;7.50;4.50;;;;;;;6.19;100.00;99412.41;106537;1262;61265;-81
2024/03/25 11:20:45;;;;;;;5.30;3.60;;;;;;;6.19;100.00;99411.93;105610;1257;75929;-82
2024/03/25 11:23:13;;;;;;;8.90;4.50;;;;;;;6.14;100.00;99409.35;105765;1257;70704;-81
2024/03/25 11:25:41;;;;;;;10.70;5.30;;;;;;;6.18;100.00;99407.45;105801;1260;75137;-81
2024/03/25 11:28:09;;;;;;;10.40;4.90;;;;;;;6.18;100.00;99407.33;105726;1257;63972;-81